Redwood Valley, California
Current Conditions -  °F | °C
As of 11:35 PM on Thursday 30 Oct 2014 (Local Time) from KUKI Reporting Station
Broken Clouds Broken Clouds  
Wind Chill: 60°   Ceiling: 2500
Heat Index: 60°   Visibility: 10mi
Dew Point: 54°   Wind: 3mph
Humidity: 80%   Direction: 180°S
Pressure: 29.89"   Gusts: NA
Location:  39.27°N, 123.21°W
Report Text: KUKI 310635Z AUTO 18003KT 10SM BKN025 BKN030 16/12 A2989 RMK AO2 RAE00 P0000 T01560122
Loading
Personal Weather Stations






























Interactive Weather Map
Tropical Storm Tracking
New forecast layout! Learn more

10-Day Weather Forecast

Advertisements
Track Severe Weather on mobile